Brooklyn, Wisconsin
Current Conditions -  °F | °C
As of 10:35 AM on Sunday 21 Dec 2014 (Local Time) from KEFT Reporting Station
Haze Haze  
Wind Chill: 24°   Ceiling: 400
Heat Index: 32°   Visibility: 3mi
Dew Point: 32°   Wind: 9mph
Humidity: 100%   Direction: 160°SSE
Pressure: 30.08"   Gusts: NA
Location:  42.85°N, 89.37°W
Report Text: KEFT 211635Z AUTO 16008KT 3SM BR OVC004 00/00 A3008 RMK AO2
Loading
Personal Weather Stations






























Interactive Weather Map New forecast layout! Learn more

10-Day Weather Forecast

Advertisements
Track Severe Weather on mobile